Forside
METAR-TAF:

METAR-TAF

Lufthavne :

Minneapolis, Minnesota, USA

Breddekreds: 44-52-59N, længdekreds: 093-13-44W, højde: 256 m

Aktuelle vejr

Denne rapport blev lavet for 23 minutter siden, kl. 22:53 UTC
Vind 8 kt fra øst
Temperatur 27°C
Fugtighed 39%
Tryk 1019 hPa
Sigt: 16.1 km
Nogle få skyer i en højde af 5500 ft

METAR: KMSP 172253Z 09008KT 10SM FEW055 27/12 A3010 RMK AO2 SLP188 T02670122

Tid: 18:16 (23:16 UTC)

Vejrudsigter

Denne rapport blev lavet for 2 timer og 55 minutter siden, kl. 20:21 UTC
Foreløbig gælder fra 17 på 20 UTC til 18 på 24 UTC
Vind 3 kt fra varierende retninger
Sigt: 10 km
Nogle få skyer i en højde af 6000 ft
Fra 18 på 0400 UTC
Vind kt fra nord
Sigt: 10 km
skyfri
Fra 18 på 1400 UTC
Vind 4 kt fra østsydøst
Sigt: 10 km
skyfri
Fra 18 på 1800 UTC
Vind 7 kt fra sydsydøst
Sigt: 10 km
Spredte skyer i en højde af 25000 ft

TAF: KMSP 172021Z 1720/1824 VRB03KT P6SM FEW060 FM180400 00000KT P6SM SKC FM181400 12004KT P6SM SKC FM181800 15007KT P6SM SCT250

Vejrobservationer og prognoser fra mere end 4000 lufthavne (METAR og TAF).

De gule og røde prikker repræsenterer de meteorologiske stationer.

Flyt musen over at se navnet på stationen.

Så klik over at se vejr observationer og prognoser.

At skifte det kort: Klik på de grønne knapper med et sort kors for at zoome ind; på den grønne knap med en bindestreg for at zoome ud; eller på de grønne pile for tilstødende kort.


METAR-TAF: